logo
Search for airport 
image banner adimage banner adimage banner ad
image banner ad

YHUNT - Hunter Island

Located in , Australia

ICAO - , IATA -

Data provided by Airmate  

General information

Coordinates: S40°31'21" E144°44'30"
Elevation is 98 feet MSL.
Magnetic variation is 13° East
View others Airports in Tasmania

Operational data

Special qualification required
Current time UTC:
Current local time:
Weather at : - ( 0 km )
METAR: K40B 131516Z AUTO 14008G15KT 090V170 11/06 A2941 RMK AO1 SLP964 T01120059 57009
View NOTAMs / SUP AIP / TFR affecting this airport [VIEW]
Communications frequencies: [VIEW]

Runways:

RWY identifierQFULength (ft)Width (ft)SurfaceLDA (ft)
26272°122169GRAS
0892°122169GRAS
18190°188592GRAS
3610°188592GRAS

Airport contact information

Address: Australia

Satellite view of YHUNT